createdAt,value
2019-05-26T00:00:25.060Z,6.57
2019-05-26T00:02:53.985Z,6.10
2019-05-26T00:05:22.585Z,5.57
2019-05-26T00:07:51.218Z,5.77
2019-05-26T00:10:19.923Z,5.80
2019-05-26T00:12:48.526Z,6.00
2019-05-26T00:15:17.535Z,5.83
2019-05-26T00:17:46.131Z,5.47
2019-05-26T00:20:14.861Z,5.50
2019-05-26T00:22:43.512Z,6.00
2019-05-26T00:25:12.316Z,6.17
2019-05-26T00:27:41.092Z,5.63
2019-05-26T00:30:10.094Z,6.03
2019-05-26T00:32:38.689Z,6.00
2019-05-26T00:35:08.024Z,5.97
2019-05-26T00:37:48.319Z,6.30
2019-05-26T00:40:08.748Z,5.90
2019-05-26T00:42:37.560Z,5.80
2019-05-26T00:45:06.770Z,5.80
2019-05-26T00:47:35.476Z,5.83
2019-05-26T00:50:05.041Z,5.87
2019-05-26T00:52:33.638Z,6.40
2019-05-26T00:55:02.570Z,5.83
2019-05-26T00:57:31.272Z,6.30
2019-05-26T00:59:59.857Z,5.93
2019-05-26T01:02:28.456Z,5.90
2019-05-26T01:04:57.138Z,6.03
2019-05-26T01:07:25.724Z,5.87
2019-05-26T01:09:54.316Z,5.90
2019-05-26T01:12:22.905Z,6.57
2019-05-26T01:14:51.508Z,6.40
2019-05-26T01:17:20.123Z,6.37
2019-05-26T01:19:48.818Z,6.20
2019-05-26T01:22:17.423Z,6.03
2019-05-26T01:24:45.930Z,6.50
2019-05-26T01:27:14.517Z,5.93
2019-05-26T01:29:43.019Z,5.87
2019-05-26T01:32:11.583Z,6.10
2019-05-26T01:34:40.161Z,5.57
2019-05-26T01:37:09.067Z,6.27
2019-05-26T01:39:37.755Z,5.97
2019-05-26T01:42:06.361Z,6.20
2019-05-26T01:44:34.947Z,6.57
2019-05-26T01:47:03.550Z,6.70
2019-05-26T01:49:32.054Z,6.40
2019-05-26T01:52:00.561Z,6.10
2019-05-26T01:54:29.058Z,5.90
2019-05-26T01:56:57.665Z,6.30
2019-05-26T01:59:26.269Z,6.73
2019-05-26T02:01:58.548Z,6.33
2019-05-26T02:04:25.181Z,6.70
2019-05-26T02:06:53.665Z,6.40
2019-05-26T02:09:22.046Z,6.50
2019-05-26T02:11:50.548Z,5.83
2019-05-26T02:14:19.057Z,6.20
2019-05-26T02:16:47.626Z,6.80
2019-05-26T02:19:16.330Z,5.77
2019-05-26T02:21:44.738Z,6.47
2019-05-26T02:24:13.232Z,6.63
2019-05-26T02:26:41.746Z,6.57
2019-05-26T02:29:10.270Z,5.90
2019-05-26T02:31:38.776Z,6.00
2019-05-26T02:34:07.258Z,6.53
2019-05-26T02:36:35.853Z,5.40
2019-05-26T02:39:06.898Z,6.50
2019-05-26T02:41:35.601Z,6.43
2019-05-26T02:44:04.380Z,6.60
2019-05-26T02:46:33.077Z,6.53
2019-05-26T02:49:01.772Z,5.93
2019-05-26T02:51:30.384Z,6.50
2019-05-26T02:53:58.870Z,6.30
2019-05-26T02:56:27.534Z,6.47
2019-05-26T02:58:56.013Z,6.30
2019-05-26T03:01:25.435Z,6.40
2019-05-26T03:03:54.213Z,6.77
2019-05-26T03:06:23.833Z,6.63
2019-05-26T03:08:55.139Z,6.83
2019-05-26T03:11:26.744Z,6.20
2019-05-26T03:13:59.074Z,6.40
2019-05-26T03:16:30.194Z,6.40
2019-05-26T03:19:00.643Z,6.70
2019-05-26T03:21:32.154Z,5.80
2019-05-26T03:24:03.755Z,6.63
2019-05-26T03:26:32.499Z,6.77
2019-05-26T03:29:01.077Z,6.30
2019-05-26T03:31:29.670Z,5.93
2019-05-26T03:33:58.285Z,6.00
2019-05-26T03:36:26.875Z,6.27
2019-05-26T03:38:55.371Z,6.97
2019-05-26T03:41:23.862Z,6.37
2019-05-26T03:43:52.372Z,6.60
2019-05-26T03:46:20.998Z,6.60
2019-05-26T03:48:50.107Z,6.63
2019-05-26T03:51:19.057Z,6.80
2019-05-26T03:53:47.611Z,6.43
2019-05-26T03:56:16.092Z,6.40
2019-05-26T03:58:44.593Z,6.70
2019-05-26T04:01:13.095Z,7.03
2019-05-26T04:03:41.686Z,7.17
2019-05-26T04:06:10.387Z,6.37
2019-05-26T04:08:38.992Z,6.53
2019-05-26T04:11:07.505Z,6.70
2019-05-26T04:13:36.028Z,6.60
2019-05-26T04:16:04.868Z,6.57
2019-05-26T04:18:33.458Z,6.30
2019-05-26T04:21:01.870Z,6.57
2019-05-26T04:23:30.616Z,6.80
2019-05-26T04:25:59.239Z,6.47
2019-05-26T04:28:27.735Z,6.63
2019-05-26T04:30:56.303Z,7.07
2019-05-26T04:33:24.934Z,7.23
2019-05-26T04:35:53.536Z,8.60
2019-05-26T04:38:22.026Z,7.90
2019-05-26T04:40:50.675Z,7.57
2019-05-26T04:43:19.180Z,7.70
2019-05-26T04:45:47.671Z,7.30
2019-05-26T04:48:16.374Z,7.27
2019-05-26T04:50:45.112Z,7.40
2019-05-26T04:53:13.819Z,7.47
2019-05-26T04:55:42.442Z,7.53
2019-05-26T04:58:10.845Z,7.43
2019-05-26T05:00:39.339Z,7.53
2019-05-26T05:03:07.917Z,7.03
2019-05-26T05:05:36.324Z,7.17
2019-05-26T05:08:04.954Z,7.67
2019-05-26T05:10:42.313Z,7.37
2019-05-26T05:13:04.055Z,8.23
2019-05-26T05:15:32.555Z,8.50
2019-05-26T05:18:01.055Z,7.30
2019-05-26T05:20:29.553Z,8.40
2019-05-26T05:22:58.161Z,9.17
2019-05-26T05:25:26.843Z,8.97
2019-05-26T05:27:55.436Z,8.40
2019-05-26T05:30:24.135Z,6.80
2019-05-26T05:32:52.749Z,8.43
2019-05-26T05:35:21.300Z,7.83
2019-05-26T05:37:50.214Z,8.23
2019-05-26T05:40:18.982Z,7.30
2019-05-26T05:42:47.568Z,7.93
2019-05-26T05:45:17.270Z,7.53
2019-05-26T05:47:45.773Z,8.40
2019-05-26T05:50:14.870Z,7.13
2019-05-26T05:52:43.574Z,8.30
2019-05-26T05:55:12.282Z,8.30
2019-05-26T05:57:40.858Z,7.90
2019-05-26T06:00:12.662Z,8.17
2019-05-26T06:02:41.163Z,8.43
2019-05-26T06:05:09.751Z,7.80
2019-05-26T06:07:38.390Z,7.00
2019-05-26T06:10:08.038Z,7.50
2019-05-26T06:12:36.628Z,8.20
2019-05-26T06:15:07.556Z,7.60
2019-05-26T06:17:36.055Z,6.93
2019-05-26T06:20:05.804Z,7.27
2019-05-26T06:22:34.391Z,7.40
2019-05-26T06:25:03.923Z,7.77
2019-05-26T06:27:32.729Z,7.37
2019-05-26T06:30:01.333Z,7.70
2019-05-26T06:32:29.914Z,6.80
2019-05-26T06:34:58.315Z,6.73
2019-05-26T06:37:26.905Z,6.83
2019-05-26T06:39:55.610Z,6.37
2019-05-26T06:42:24.088Z,7.60
2019-05-26T06:44:54.063Z,6.87
2019-05-26T06:47:22.811Z,11.77
2019-05-26T06:49:51.376Z,7.00
2019-05-26T06:52:20.022Z,6.70
2019-05-26T06:54:49.144Z,7.13
2019-05-26T06:57:17.636Z,6.57
2019-05-26T06:59:46.125Z,6.53
2019-05-26T07:02:14.631Z,6.40
2019-05-26T07:04:43.129Z,7.13
2019-05-26T07:07:11.708Z,6.83
2019-05-26T07:09:40.227Z,6.93
2019-05-26T07:12:08.805Z,7.40
2019-05-26T07:14:37.203Z,6.27
2019-05-26T07:17:05.700Z,7.33
2019-05-26T07:19:34.190Z,5.73
2019-05-26T07:22:02.674Z,6.00
2019-05-26T07:24:31.193Z,5.63
2019-05-26T07:26:59.767Z,5.97
2019-05-26T07:29:28.344Z,6.03
2019-05-26T07:31:56.849Z,5.07
2019-05-26T07:34:25.444Z,4.77
2019-05-26T07:36:54.538Z,4.90
2019-05-26T07:39:23.249Z,5.27
2019-05-26T07:42:08.667Z,4.67
2019-05-26T07:44:22.059Z,4.63
2019-05-26T07:46:56.638Z,4.70
2019-05-26T07:49:25.184Z,4.57
2019-05-26T07:51:53.765Z,4.30
2019-05-26T07:54:25.597Z,4.33
2019-05-26T07:56:52.660Z,4.37
2019-05-26T07:59:21.201Z,5.60
2019-05-26T08:01:49.703Z,5.00
2019-05-26T08:04:18.291Z,4.40
2019-05-26T08:06:46.801Z,4.30
2019-05-26T08:09:15.315Z,4.20
2019-05-26T08:11:43.900Z,4.03
2019-05-26T08:14:12.492Z,4.30
2019-05-26T08:16:40.979Z,4.23
2019-05-26T08:19:09.492Z,4.10
2019-05-26T08:21:38.094Z,3.90
2019-05-26T08:24:06.529Z,3.87
2019-05-26T08:26:35.026Z,3.57
2019-05-26T08:29:03.538Z,3.80
2019-05-26T08:31:31.925Z,3.53
2019-05-26T08:34:00.555Z,3.73
2019-05-26T08:36:29.079Z,3.83
2019-05-26T08:38:57.661Z,3.40
2019-05-26T08:41:26.149Z,3.50
2019-05-26T08:43:54.651Z,3.40
2019-05-26T08:46:23.186Z,3.57
2019-05-26T08:48:51.677Z,3.33
2019-05-26T08:51:20.273Z,3.20
2019-05-26T08:53:48.688Z,3.53
2019-05-26T08:56:17.303Z,3.70
2019-05-26T08:58:45.816Z,3.60
2019-05-26T09:01:14.302Z,3.20
2019-05-26T09:03:42.928Z,3.00
2019-05-26T09:06:11.544Z,3.30
2019-05-26T09:08:40.032Z,3.33
2019-05-26T09:11:08.531Z,3.20
2019-05-26T09:13:37.330Z,3.27
2019-05-26T09:16:06.035Z,3.47
2019-05-26T09:18:34.624Z,3.50
2019-05-26T09:21:03.331Z,3.40
2019-05-26T09:23:31.925Z,3.20
2019-05-26T09:26:00.420Z,3.10
2019-05-26T09:28:29.033Z,3.50
2019-05-26T09:30:57.633Z,3.10
2019-05-26T09:33:26.145Z,2.47
2019-05-26T09:35:54.743Z,2.30
2019-05-26T09:38:23.241Z,2.53
2019-05-26T09:40:51.739Z,2.10
2019-05-26T09:43:20.357Z,2.50
2019-05-26T09:45:48.841Z,2.50
2019-05-26T09:48:17.439Z,2.33
2019-05-26T09:50:46.031Z,2.03
2019-05-26T09:53:14.630Z,2.20
2019-05-26T09:55:43.132Z,2.10
2019-05-26T09:58:11.762Z,2.10
2019-05-26T10:00:40.250Z,2.63
2019-05-26T10:03:08.863Z,2.27
2019-05-26T10:05:37.436Z,2.00
2019-05-26T10:08:05.862Z,2.30
2019-05-26T10:10:34.354Z,2.13
2019-05-26T10:13:02.993Z,2.20
2019-05-26T10:15:31.635Z,2.10
2019-05-26T10:18:00.256Z,2.23
2019-05-26T10:20:28.856Z,2.20
2019-05-26T10:22:57.542Z,2.00
2019-05-26T10:25:26.159Z,2.30
2019-05-26T10:27:54.640Z,2.20
2019-05-26T10:30:23.250Z,2.00
2019-05-26T10:32:51.857Z,2.60
2019-05-26T10:35:20.362Z,2.20
2019-05-26T10:37:48.972Z,2.50
2019-05-26T10:40:17.569Z,2.50
2019-05-26T10:42:46.075Z,2.10
2019-05-26T10:45:15.371Z,2.23
2019-05-26T10:47:43.956Z,2.73
2019-05-26T10:50:12.965Z,3.23
2019-05-26T10:52:41.476Z,2.10
2019-05-26T10:55:10.476Z,1.93
2019-05-26T10:57:39.104Z,2.30
2019-05-26T11:00:08.446Z,2.30
2019-05-26T11:02:36.950Z,1.80
2019-05-26T11:05:06.591Z,2.00
2019-05-26T11:07:35.189Z,2.00
2019-05-26T11:10:04.797Z,2.00
2019-05-26T11:12:33.301Z,2.00
2019-05-26T11:15:01.897Z,2.00
2019-05-26T11:17:30.496Z,2.10
2019-05-26T11:19:58.981Z,1.90
2019-05-26T11:22:27.484Z,2.20
2019-05-26T11:24:55.977Z,2.13
2019-05-26T11:27:24.583Z,2.00
2019-05-26T11:29:53.202Z,2.17
2019-05-26T11:32:21.733Z,2.10
2019-05-26T11:35:01.121Z,2.20
2019-05-26T11:37:20.797Z,2.00
2019-05-26T11:39:49.285Z,2.40
2019-05-26T11:42:17.878Z,2.07
2019-05-26T11:44:46.611Z,2.30
2019-05-26T11:47:15.210Z,2.00
2019-05-26T11:49:43.794Z,2.17
2019-05-26T11:52:12.297Z,2.20
2019-05-26T11:54:40.887Z,2.03
2019-05-26T11:57:09.362Z,2.10
2019-05-26T11:59:37.877Z,2.30
2019-05-26T12:02:06.496Z,2.20
2019-05-26T12:04:35.097Z,2.30
2019-05-26T12:07:04.615Z,2.30
2019-05-26T12:09:33.572Z,2.40
2019-05-26T12:12:02.253Z,2.37
2019-05-26T12:14:34.981Z,2.30
2019-05-26T12:17:01.379Z,2.40
2019-05-26T12:19:29.948Z,2.27
2019-05-26T12:21:58.550Z,2.20
2019-05-26T12:24:27.177Z,2.30
2019-05-26T12:26:55.776Z,2.30
2019-05-26T12:29:24.163Z,2.50
2019-05-26T12:31:52.957Z,2.33
2019-05-26T12:34:21.535Z,2.63
2019-05-26T12:36:50.106Z,2.30
2019-05-26T12:39:18.613Z,2.60
2019-05-26T12:41:47.332Z,2.57
2019-05-26T12:44:15.798Z,2.50
2019-05-26T12:46:44.298Z,2.40
2019-05-26T12:49:12.915Z,2.40
2019-05-26T12:51:41.505Z,2.67
2019-05-26T12:54:10.022Z,2.27
2019-05-26T12:56:38.522Z,2.50
2019-05-26T12:59:07.307Z,4.10
2019-05-26T13:01:35.838Z,7.97
2019-05-26T13:04:04.568Z,4.50
2019-05-26T13:06:33.279Z,3.03
2019-05-26T13:09:01.878Z,2.90
2019-05-26T13:11:30.479Z,4.57
2019-05-26T13:13:59.097Z,4.70
2019-05-26T13:16:27.716Z,3.10
2019-05-26T13:18:56.421Z,4.00
2019-05-26T13:21:25.003Z,2.93
2019-05-26T13:23:53.403Z,3.03
2019-05-26T13:26:21.996Z,3.33
2019-05-26T13:28:50.611Z,3.30
2019-05-26T13:31:19.113Z,3.00
2019-05-26T13:33:47.746Z,2.70
2019-05-26T13:36:16.419Z,3.03
2019-05-26T13:38:44.908Z,2.90
2019-05-26T13:41:13.408Z,3.00
2019-05-26T13:43:42.000Z,3.00
2019-05-26T13:46:10.488Z,3.17
2019-05-26T13:48:39.015Z,2.87
2019-05-26T13:51:07.603Z,2.93
2019-05-26T13:53:36.159Z,2.60
2019-05-26T13:56:04.709Z,3.30
2019-05-26T13:58:33.241Z,3.43
2019-05-26T14:01:01.723Z,2.93
2019-05-26T14:03:30.318Z,2.77
2019-05-26T14:05:58.898Z,3.23
2019-05-26T14:08:27.520Z,3.17
2019-05-26T14:10:56.220Z,2.60
2019-05-26T14:13:24.821Z,2.50
2019-05-26T14:15:54.765Z,3.30
2019-05-26T14:18:24.668Z,3.20
2019-05-26T14:20:53.380Z,3.37
2019-05-26T14:23:21.865Z,3.10
2019-05-26T14:25:50.430Z,2.70
2019-05-26T14:28:19.023Z,3.63
2019-05-26T14:30:47.430Z,3.23
2019-05-26T14:33:15.905Z,2.97
2019-05-26T14:35:44.516Z,2.83
2019-05-26T14:38:13.113Z,2.80
2019-05-26T14:40:41.717Z,3.00
2019-05-26T14:43:10.473Z,2.50
2019-05-26T14:45:52.442Z,3.20
2019-05-26T14:48:09.330Z,3.00
2019-05-26T14:50:40.692Z,2.70
2019-05-26T14:53:08.293Z,2.80
2019-05-26T14:55:36.905Z,3.53
2019-05-26T14:58:14.980Z,2.90
2019-05-26T15:00:36.089Z,2.73
2019-05-26T15:03:04.687Z,2.33
2019-05-26T15:05:33.289Z,3.13
2019-05-26T15:08:01.887Z,2.93
2019-05-26T15:10:30.587Z,2.53
2019-05-26T15:12:59.094Z,3.07
2019-05-26T15:15:27.585Z,3.00
2019-05-26T15:17:56.218Z,2.80
2019-05-26T15:20:24.727Z,2.60
2019-05-26T15:22:53.211Z,3.23
2019-05-26T15:25:21.809Z,2.80
2019-05-26T15:27:50.324Z,3.03
2019-05-26T15:30:19.013Z,3.03
2019-05-26T15:32:47.713Z,2.87
2019-05-26T15:35:16.302Z,2.93
2019-05-26T15:37:44.812Z,2.97
2019-05-26T15:40:13.872Z,3.20
2019-05-26T15:42:42.393Z,2.87
2019-05-26T15:45:11.004Z,2.80
2019-05-26T15:47:39.611Z,2.87
2019-05-26T15:50:08.924Z,3.00
2019-05-26T15:52:37.510Z,2.77
2019-05-26T15:55:07.054Z,3.13
2019-05-26T15:57:35.669Z,2.80
2019-05-26T16:00:05.244Z,2.93
2019-05-26T16:02:33.880Z,2.77
2019-05-26T16:05:02.411Z,3.57
2019-05-26T16:07:31.144Z,3.10
2019-05-26T16:09:59.758Z,2.73
2019-05-26T16:12:28.385Z,3.23
2019-05-26T16:14:56.998Z,3.23
2019-05-26T16:17:25.478Z,3.57
2019-05-26T16:19:54.018Z,5.00
2019-05-26T16:22:22.593Z,3.80
2019-05-26T16:24:51.204Z,3.37
2019-05-26T16:27:20.093Z,3.07
2019-05-26T16:29:48.513Z,2.97
2019-05-26T16:32:18.967Z,3.10
2019-05-26T16:34:47.592Z,2.97
2019-05-26T16:37:16.097Z,2.93
2019-05-26T16:39:44.677Z,3.33
2019-05-26T16:42:13.168Z,3.10
2019-05-26T16:44:41.747Z,3.10
2019-05-26T16:47:10.235Z,3.50
2019-05-26T16:49:38.779Z,3.33
2019-05-26T16:52:07.290Z,4.50
2019-05-26T16:54:35.882Z,3.60
2019-05-26T16:57:04.644Z,4.33
2019-05-26T16:59:33.154Z,3.50
2019-05-26T17:02:01.759Z,3.57
2019-05-26T17:04:30.479Z,3.60
2019-05-26T17:06:58.889Z,3.27
2019-05-26T17:09:27.588Z,4.17
2019-05-26T17:11:56.108Z,3.90
2019-05-26T17:14:24.749Z,3.60
2019-05-26T17:16:53.242Z,3.93
2019-05-26T17:19:21.838Z,4.00
2019-05-26T17:21:50.352Z,3.80
2019-05-26T17:24:18.872Z,4.10
2019-05-26T17:26:47.380Z,3.73
2019-05-26T17:29:15.997Z,4.47
2019-05-26T17:31:44.615Z,4.50
2019-05-26T17:34:13.098Z,4.37
2019-05-26T17:36:41.605Z,4.30
2019-05-26T17:39:10.079Z,4.40
2019-05-26T17:41:38.686Z,4.40
2019-05-26T17:44:07.322Z,4.53
2019-05-26T17:46:35.799Z,4.67
2019-05-26T17:49:04.396Z,4.40
2019-05-26T17:51:33.719Z,4.17
2019-05-26T17:54:02.337Z,5.03
2019-05-26T17:56:31.034Z,4.57
2019-05-26T17:58:59.539Z,4.70
2019-05-26T18:01:28.141Z,4.67
2019-05-26T18:03:56.734Z,4.40
2019-05-26T18:06:25.216Z,4.90
2019-05-26T18:08:53.716Z,4.57
2019-05-26T18:11:22.219Z,4.63
2019-05-26T18:13:50.848Z,4.83
2019-05-26T18:16:19.257Z,4.70
2019-05-26T18:18:47.870Z,4.80
2019-05-26T18:21:16.481Z,4.63
2019-05-26T18:23:44.974Z,4.40
2019-05-26T18:26:13.484Z,4.70
2019-05-26T18:28:42.217Z,4.70
2019-05-26T18:31:10.740Z,4.50
2019-05-26T18:33:39.251Z,4.50
2019-05-26T18:36:07.855Z,4.60
2019-05-26T18:38:36.345Z,4.90
2019-05-26T18:41:04.839Z,4.37
2019-05-26T18:43:33.468Z,5.23
2019-05-26T18:46:01.938Z,4.30
2019-05-26T18:48:30.544Z,4.83
2019-05-26T18:50:59.058Z,4.23
2019-05-26T18:53:29.825Z,4.53
2019-05-26T18:55:57.966Z,4.60
2019-05-26T18:58:26.473Z,4.30
2019-05-26T19:00:54.981Z,4.03
2019-05-26T19:03:23.646Z,4.10
2019-05-26T19:05:52.254Z,4.70
2019-05-26T19:08:20.869Z,4.50
2019-05-26T19:10:49.468Z,4.70
2019-05-26T19:13:18.074Z,4.40
2019-05-26T19:15:46.579Z,4.93
2019-05-26T19:18:19.739Z,4.27
2019-05-26T19:20:45.584Z,4.73
2019-05-26T19:23:14.190Z,4.07
2019-05-26T19:25:42.922Z,4.20
2019-05-26T19:28:11.542Z,4.70
2019-05-26T19:30:40.166Z,4.33
2019-05-26T19:33:08.782Z,4.77
2019-05-26T19:35:37.281Z,4.40
2019-05-26T19:38:05.870Z,4.50
2019-05-26T19:40:34.773Z,4.13
2019-05-26T19:43:03.474Z,4.70
2019-05-26T19:45:31.971Z,4.80
2019-05-26T19:48:00.628Z,4.87
2019-05-26T19:50:29.186Z,4.50
2019-05-26T19:52:57.690Z,4.57
2019-05-26T19:55:26.394Z,5.00
2019-05-26T19:57:54.874Z,4.57
2019-05-26T20:00:24.189Z,4.67
2019-05-26T20:02:52.581Z,5.13
2019-05-26T20:05:21.174Z,4.50
2019-05-26T20:07:49.777Z,4.97
2019-05-26T20:10:18.466Z,4.63
2019-05-26T20:12:47.154Z,4.53
2019-05-26T20:15:16.350Z,4.77
2019-05-26T20:17:44.952Z,5.23
2019-05-26T20:20:14.088Z,5.40
2019-05-26T20:22:42.689Z,5.00
2019-05-26T20:25:11.486Z,5.20
2019-05-26T20:27:40.074Z,5.37
2019-05-26T20:30:08.690Z,5.43
2019-05-26T20:32:37.268Z,5.00
2019-05-26T20:35:06.161Z,4.93
2019-05-26T20:37:34.690Z,5.37
2019-05-26T20:40:04.048Z,5.50
2019-05-26T20:42:32.542Z,5.77
2019-05-26T20:45:01.129Z,5.10
2019-05-26T20:47:29.721Z,5.43
2019-05-26T20:49:58.227Z,5.07
2019-05-26T20:52:26.725Z,5.50
2019-05-26T20:54:55.232Z,5.20
2019-05-26T20:57:23.943Z,4.93
2019-05-26T20:59:52.531Z,5.00
2019-05-26T21:02:21.040Z,5.43
2019-05-26T21:04:49.639Z,5.33
2019-05-26T21:07:18.232Z,5.20
2019-05-26T21:09:46.816Z,5.10
2019-05-26T21:12:15.338Z,4.90
2019-05-26T21:14:43.830Z,5.00
2019-05-26T21:17:12.326Z,4.67
2019-05-26T21:19:40.926Z,5.43
2019-05-26T21:22:09.625Z,5.40
2019-05-26T21:24:38.238Z,5.00
2019-05-26T21:27:06.820Z,4.80
2019-05-26T21:29:36.276Z,5.07
2019-05-26T21:32:04.891Z,4.77
2019-05-26T21:34:33.493Z,5.27
2019-05-26T21:37:02.072Z,5.20
2019-05-26T21:39:30.564Z,5.00
2019-05-26T21:41:59.148Z,5.10
2019-05-26T21:44:27.735Z,5.20
2019-05-26T21:46:56.245Z,5.00
2019-05-26T21:49:24.939Z,5.40
2019-05-26T21:51:53.638Z,5.13
2019-05-26T21:54:22.230Z,4.80
2019-05-26T21:56:50.872Z,5.03
2019-05-26T21:59:19.422Z,5.17
2019-05-26T22:01:47.822Z,5.37
2019-05-26T22:04:16.409Z,5.43
2019-05-26T22:06:45.015Z,5.10
2019-05-26T22:09:13.500Z,4.70
2019-05-26T22:11:42.088Z,5.40
2019-05-26T22:14:10.669Z,5.00
2019-05-26T22:16:39.164Z,5.07
2019-05-26T22:19:07.651Z,6.03
2019-05-26T22:21:36.216Z,5.30
2019-05-26T22:24:04.817Z,5.37
2019-05-26T22:26:33.304Z,5.43
2019-05-26T22:29:01.786Z,5.43
2019-05-26T22:31:30.282Z,5.53
2019-05-26T22:33:58.804Z,5.20
2019-05-26T22:36:27.365Z,5.80
2019-05-26T22:38:55.746Z,5.20
2019-05-26T22:41:24.336Z,5.80
2019-05-26T22:43:52.929Z,5.37
2019-05-26T22:46:21.547Z,5.57
2019-05-26T22:48:50.147Z,5.47
2019-05-26T22:51:18.640Z,5.47
2019-05-26T22:53:47.138Z,5.50
2019-05-26T22:56:15.646Z,5.43
2019-05-26T22:58:44.239Z,5.33
2019-05-26T23:01:13.147Z,5.63
2019-05-26T23:03:41.645Z,5.57
2019-05-26T23:06:10.282Z,5.30
2019-05-26T23:08:38.872Z,5.70
2019-05-26T23:11:07.360Z,5.70
2019-05-26T23:13:36.007Z,6.00
2019-05-26T23:16:04.608Z,5.50
2019-05-26T23:18:33.095Z,5.40
2019-05-26T23:21:01.702Z,5.70
2019-05-26T23:23:30.184Z,5.90
2019-05-26T23:25:58.663Z,5.30
2019-05-26T23:28:27.361Z,5.50
2019-05-26T23:30:55.850Z,4.97
2019-05-26T23:33:24.424Z,5.40
2019-05-26T23:35:52.810Z,5.40
2019-05-26T23:38:21.397Z,5.77
2019-05-26T23:40:49.885Z,5.40
2019-05-26T23:43:18.389Z,5.40
2019-05-26T23:45:46.984Z,5.47
2019-05-26T23:48:15.397Z,5.27
2019-05-26T23:50:43.998Z,5.43
2019-05-26T23:53:12.589Z,5.13
2019-05-26T23:55:41.197Z,5.33
2019-05-26T23:58:09.688Z,5.30
